sensor_id;sensor_type;location;lat;lon;timestamp;pressure;altitude;pressure_sealevel;temperature;humidity
10618;BME280;5356;43.526;26.534;2023-08-12T00:00:10;99546.66;;;20.40;100.00
10618;BME280;5356;43.526;26.534;2023-08-12T00:02:40;99554.50;;;20.42;100.00
10618;BME280;5356;43.526;26.534;2023-08-12T00:05:06;99555.31;;;20.42;100.00
10618;BME280;5356;43.526;26.534;2023-08-12T00:07:33;99554.75;;;20.46;100.00
10618;BME280;5356;43.526;26.534;2023-08-12T00:10:00;99554.50;;;20.42;100.00
10618;BME280;5356;43.526;26.534;2023-08-12T00:12:26;99554.22;;;20.44;100.00
10618;BME280;5356;43.526;26.534;2023-08-12T00:14:52;99559.91;;;20.52;100.00
10618;BME280;5356;43.526;26.534;2023-08-12T00:17:17;99555.56;;;20.61;100.00
10618;BME280;5356;43.526;26.534;2023-08-12T00:19:43;99552.63;;;20.53;100.00
10618;BME280;5356;43.526;26.534;2023-08-12T00:22:08;99553.72;;;20.41;100.00
10618;BME280;5356;43.526;26.534;2023-08-12T00:24:34;99561.03;;;20.41;100.00
10618;BME280;5356;43.526;26.534;2023-08-12T00:26:59;99556.97;;;20.38;100.00
10618;BME280;5356;43.526;26.534;2023-08-12T00:29:25;99551.31;;;20.30;100.00
10618;BME280;5356;43.526;26.534;2023-08-12T00:31:50;99553.47;;;20.33;100.00
10618;BME280;5356;43.526;26.534;2023-08-12T00:34:17;99552.63;;;20.32;100.00
10618;BME280;5356;43.526;26.534;2023-08-12T00:36:42;99556.44;;;20.26;100.00
10618;BME280;5356;43.526;26.534;2023-08-12T00:39:08;99549.41;;;20.30;100.00
10618;BME280;5356;43.526;26.534;2023-08-12T00:41:33;99541.28;;;20.35;100.00
10618;BME280;5356;43.526;26.534;2023-08-12T00:43:59;99548.31;;;20.36;100.00
10618;BME280;5356;43.526;26.534;2023-08-12T00:46:24;99547.50;;;20.31;100.00
10618;BME280;5356;43.526;26.534;2023-08-12T00:48:50;99541.84;;;20.27;100.00
10618;BME280;5356;43.526;26.534;2023-08-12T00:51:16;99551.88;;;20.16;100.00
10618;BME280;5356;43.526;26.534;2023-08-12T00:53:42;99548.38;;;20.16;100.00
10618;BME280;5356;43.526;26.534;2023-08-12T00:56:09;99543.78;;;20.06;100.00
10618;BME280;5356;43.526;26.534;2023-08-12T00:58:35;99546.22;;;20.08;100.00
10618;BME280;5356;43.526;26.534;2023-08-12T01:01:00;99549.72;;;20.03;100.00
10618;BME280;5356;43.526;26.534;2023-08-12T01:03:26;99548.91;;;20.13;100.00
10618;BME280;5356;43.526;26.534;2023-08-12T01:05:52;99549.44;;;20.15;100.00
10618;BME280;5356;43.526;26.534;2023-08-12T01:08:17;99547.81;;;20.19;100.00
10618;BME280;5356;43.526;26.534;2023-08-12T01:10:49;99537.50;;;20.21;100.00
10618;BME280;5356;43.526;26.534;2023-08-12T01:13:39;99536.44;;;20.27;100.00
10618;BME280;5356;43.526;26.534;2023-08-12T01:16:08;99537.81;;;20.14;100.00
10618;BME280;5356;43.526;26.534;2023-08-12T01:18:36;99539.16;;;20.17;100.00
10618;BME280;5356;43.526;26.534;2023-08-12T01:21:03;99537.53;;;20.16;100.00
10618;BME280;5356;43.526;26.534;2023-08-12T01:23:30;99533.75;;;20.17;100.00
10618;BME280;5356;43.526;26.534;2023-08-12T01:25:55;99534.28;;;20.19;100.00
10618;BME280;5356;43.526;26.534;2023-08-12T01:28:21;99533.50;;;20.08;100.00
10618;BME280;5356;43.526;26.534;2023-08-12T01:31:04;99528.09;;;20.08;100.00
10618;BME280;5356;43.526;26.534;2023-08-12T01:33:51;99530.53;;;20.05;100.00
10618;BME280;5356;43.526;26.534;2023-08-12T01:36:19;99535.94;;;19.94;100.00
10618;BME280;5356;43.526;26.534;2023-08-12T01:38:45;99536.25;;;19.88;100.00
10618;BME280;5356;43.526;26.534;2023-08-12T01:41:13;99539.47;;;19.90;100.00
10618;BME280;5356;43.526;26.534;2023-08-12T01:43:40;99541.34;;;19.94;100.00
10618;BME280;5356;43.526;26.534;2023-08-12T01:46:06;99545.16;;;19.99;100.00
10618;BME280;5356;43.526;26.534;2023-08-12T01:48:32;99545.66;;;19.95;100.00
10618;BME280;5356;43.526;26.534;2023-08-12T01:50:57;99547.06;;;19.88;100.00
10618;BME280;5356;43.526;26.534;2023-08-12T01:53:23;99550.03;;;19.81;100.00
10618;BME280;5356;43.526;26.534;2023-08-12T01:55:49;99557.59;;;19.79;100.00
10618;BME280;5356;43.526;26.534;2023-08-12T01:58:15;99557.06;;;19.87;100.00
10618;BME280;5356;43.526;26.534;2023-08-12T02:00:40;99572.47;;;19.87;100.00
10618;BME280;5356;43.526;26.534;2023-08-12T02:03:06;99575.97;;;19.67;100.00
10618;BME280;5356;43.526;26.534;2023-08-12T02:05:32;99578.38;;;19.63;100.00
10618;BME280;5356;43.526;26.534;2023-08-12T02:07:58;99584.59;;;19.64;100.00
10618;BME280;5356;43.526;26.534;2023-08-12T02:10:23;99580.31;;;19.68;100.00
10618;BME280;5356;43.526;26.534;2023-08-12T02:12:49;99575.66;;;19.58;100.00
10618;BME280;5356;43.526;26.534;2023-08-12T02:15:14;99575.94;;;19.51;100.00
10618;BME280;5356;43.526;26.534;2023-08-12T02:17:40;99568.09;;;19.35;100.00
10618;BME280;5356;43.526;26.534;2023-08-12T02:20:06;99577.53;;;19.47;100.00
10618;BME280;5356;43.526;26.534;2023-08-12T02:22:31;99577.56;;;19.52;100.00
10618;BME280;5356;43.526;26.534;2023-08-12T02:24:57;99578.13;;;19.60;100.00
10618;BME280;5356;43.526;26.534;2023-08-12T02:27:22;99584.59;;;19.64;100.00
10618;BME280;5356;43.526;26.534;2023-08-12T02:29:48;99579.19;;;19.64;100.00
10618;BME280;5356;43.526;26.534;2023-08-12T02:32:13;99584.88;;;19.57;100.00
10618;BME280;5356;43.526;26.534;2023-08-12T02:34:39;99585.69;;;19.63;100.00
10618;BME280;5356;43.526;26.534;2023-08-12T02:37:04;99587.06;;;19.65;100.00
10618;BME280;5356;43.526;26.534;2023-08-12T02:39:30;99583.53;;;19.70;100.00
10618;BME280;5356;43.526;26.534;2023-08-12T02:41:55;99602.22;;;19.71;100.00
10618;BME280;5356;43.526;26.534;2023-08-12T02:44:21;99605.19;;;19.75;100.00
10618;BME280;5356;43.526;26.534;2023-08-12T02:46:46;99603.03;;;19.77;100.00
10618;BME280;5356;43.526;26.534;2023-08-12T02:49:11;99597.06;;;19.80;100.00
10618;BME280;5356;43.526;26.534;2023-08-12T02:51:37;99606.78;;;19.81;100.00
10618;BME280;5356;43.526;26.534;2023-08-12T02:54:02;99599.47;;;19.61;100.00
10618;BME280;5356;43.526;26.534;2023-08-12T02:56:28;99611.06;;;19.41;100.00
10618;BME280;5356;43.526;26.534;2023-08-12T02:58:53;99598.88;;;19.28;100.00
10618;BME280;5356;43.526;26.534;2023-08-12T03:01:20;99595.91;;;19.25;100.00
10618;BME280;5356;43.526;26.534;2023-08-12T03:03:46;99607.25;;;19.27;100.00
10618;BME280;5356;43.526;26.534;2023-08-12T03:06:12;99600.22;;;19.36;100.00
10618;BME280;5356;43.526;26.534;2023-08-12T03:08:37;99605.38;;;19.38;100.00
10618;BME280;5356;43.526;26.534;2023-08-12T03:11:03;99605.13;;;19.39;100.00
10618;BME280;5356;43.526;26.534;2023-08-12T03:13:29;99607.28;;;19.37;100.00
10618;BME280;5356;43.526;26.534;2023-08-12T03:15:54;99601.31;;;19.35;100.00
10618;BME280;5356;43.526;26.534;2023-08-12T03:18:20;99600.25;;;19.31;100.00
10618;BME280;5356;43.526;26.534;2023-08-12T03:20:46;99598.34;;;19.32;100.00
10618;BME280;5356;43.526;26.534;2023-08-12T03:23:12;99605.09;;;19.29;100.00
10618;BME280;5356;43.526;26.534;2023-08-12T03:25:37;99601.28;;;19.20;100.00
10618;BME280;5356;43.526;26.534;2023-08-12T03:28:03;99606.41;;;19.21;100.00
10618;BME280;5356;43.526;26.534;2023-08-12T03:30:28;99606.41;;;19.21;100.00
10618;BME280;5356;43.526;26.534;2023-08-12T03:32:54;99610.75;;;19.22;100.00
10618;BME280;5356;43.526;26.534;2023-08-12T03:35:19;99612.59;;;19.12;100.00
10618;BME280;5356;43.526;26.534;2023-08-12T03:37:45;99607.22;;;19.12;100.00
10618;BME280;5356;43.526;26.534;2023-08-12T03:40:10;99608.25;;;19.11;100.00
10618;BME280;5356;43.526;26.534;2023-08-12T03:42:36;99613.91;;;18.99;100.00
10618;BME280;5356;43.526;26.534;2023-08-12T03:45:01;99612.00;;;18.99;100.00
10618;BME280;5356;43.526;26.534;2023-08-12T03:47:27;99619.28;;;18.94;100.00
10618;BME280;5356;43.526;26.534;2023-08-12T03:49:52;99614.19;;;18.97;100.00
10618;BME280;5356;43.526;26.534;2023-08-12T03:52:18;99614.47;;;19.01;100.00
10618;BME280;5356;43.526;26.534;2023-08-12T03:54:43;99617.97;;;19.01;100.00
10618;BME280;5356;43.526;26.534;2023-08-12T03:57:10;99617.47;;;19.10;100.00
10618;BME280;5356;43.526;26.534;2023-08-12T03:59:36;99622.31;;;19.13;100.00
10618;BME280;5356;43.526;26.534;2023-08-12T04:02:02;99629.09;;;19.15;100.00
10618;BME280;5356;43.526;26.534;2023-08-12T04:04:29;99628.81;;;19.12;100.00
10618;BME280;5356;43.526;26.534;2023-08-12T04:06:54;99625.53;;;19.04;100.00
10618;BME280;5356;43.526;26.534;2023-08-12T04:09:20;99631.47;;;19.01;100.00
10618;BME280;5356;43.526;26.534;2023-08-12T04:11:46;99631.47;;;19.01;100.00
10618;BME280;5356;43.526;26.534;2023-08-12T04:14:13;99631.44;;;18.91;100.00
10618;BME280;5356;43.526;26.534;2023-08-12T04:16:39;99627.66;;;18.92;100.00
10618;BME280;5356;43.526;26.534;2023-08-12T04:19:04;99626.84;;;18.92;100.00
10618;BME280;5356;43.526;26.534;2023-08-12T04:21:30;99630.91;;;18.99;100.00
10618;BME280;5356;43.526;26.534;2023-08-12T04:23:55;99627.97;;;19.06;100.00
10618;BME280;5356;43.526;26.534;2023-08-12T04:26:20;99636.38;;;19.15;100.00
10618;BME280;5356;43.526;26.534;2023-08-12T04:28:46;99630.47;;;19.23;100.00
10618;BME280;5356;43.526;26.534;2023-08-12T04:31:11;99624.56;;;19.31;100.00
10618;BME280;5356;43.526;26.534;2023-08-12T04:33:37;99630.78;;;19.42;100.00
10618;BME280;5356;43.526;26.534;2023-08-12T04:36:03;99628.88;;;19.47;100.00
10618;BME280;5356;43.526;26.534;2023-08-12T04:38:28;99632.69;;;19.46;100.00
10618;BME280;5356;43.526;26.534;2023-08-12T04:40:54;99639.19;;;19.50;100.00
10618;BME280;5356;43.526;26.534;2023-08-12T04:43:21;99628.88;;;19.47;100.00
10618;BME280;5356;43.526;26.534;2023-08-12T04:45:47;99633.78;;;19.61;100.00
10618;BME280;5356;43.526;26.534;2023-08-12T04:48:13;99627.53;;;19.50;100.00
10618;BME280;5356;43.526;26.534;2023-08-12T04:50:38;99634.88;;;19.60;100.00
10618;BME280;5356;43.526;26.534;2023-08-12T04:53:05;99638.97;;;19.72;100.00
10618;BME280;5356;43.526;26.534;2023-08-12T10:46:19;99500.53;;;29.80;50.72
10618;BME280;5356;43.526;26.534;2023-08-12T10:55:47;99491.63;;;30.07;49.87
10618;BME280;5356;43.526;26.534;2023-08-12T11:06:03;99486.38;;;30.39;48.13
10618;BME280;5356;43.526;26.534;2023-08-12T11:09:27;99478.03;;;30.35;48.48
10618;BME280;5356;43.526;26.534;2023-08-12T11:19:13;99475.16;;;30.44;48.01
10618;BME280;5356;43.526;26.534;2023-08-12T11:22:16;99467.94;;;30.52;47.23
10618;BME280;5356;43.526;26.534;2023-08-12T11:29:34;99469.50;;;30.65;46.81
10618;BME280;5356;43.526;26.534;2023-08-12T11:39:47;99451.47;;;30.92;46.20
10618;BME280;5356;43.526;26.534;2023-08-12T11:42:23;99455.72;;;30.90;44.10
10618;BME280;5356;43.526;26.534;2023-08-12T11:45:05;99450.06;;;30.98;45.07
10618;BME280;5356;43.526;26.534;2023-08-12T11:47:49;99445.03;;;31.00;44.27
10618;BME280;5356;43.526;26.534;2023-08-12T11:50:56;99446.22;;;30.87;43.72
10618;BME280;5356;43.526;26.534;2023-08-12T11:54:10;99450.41;;;31.25;44.47
10618;BME280;5356;43.526;26.534;2023-08-12T11:57:04;99437.19;;;31.30;43.74
10618;BME280;5356;43.526;26.534;2023-08-12T12:10:01;99435.13;;;31.71;42.80
10618;BME280;5356;43.526;26.534;2023-08-12T12:12:57;99434.88;;;31.92;43.21
10618;BME280;5356;43.526;26.534;2023-08-12T12:15:44;99435.66;;;32.25;42.86
10618;BME280;5356;43.526;26.534;2023-08-12T12:18:13;99437.06;;;31.87;41.89
10618;BME280;5356;43.526;26.534;2023-08-12T12:20:57;99420.78;;;31.34;41.92
10618;BME280;5356;43.526;26.534;2023-08-12T12:23:30;99427.25;;;30.98;42.81
10618;BME280;5356;43.526;26.534;2023-08-12T12:26:00;99431.09;;;30.69;43.18
10618;BME280;5356;43.526;26.534;2023-08-12T12:28:26;99416.59;;;30.56;42.84
10618;BME280;5356;43.526;26.534;2023-08-12T12:30:52;99422.31;;;30.51;44.01
10618;BME280;5356;43.526;26.534;2023-08-12T12:33:18;99421.28;;;30.55;43.90
10618;BME280;5356;43.526;26.534;2023-08-12T12:35:44;99415.78;;;30.55;43.95
10618;BME280;5356;43.526;26.534;2023-08-12T12:38:09;99419.97;;;30.77;43.90
10618;BME280;5356;43.526;26.534;2023-08-12T12:40:34;99406.09;;;31.14;44.30
10618;BME280;5356;43.526;26.534;2023-08-12T12:43:00;99411.22;;;31.44;42.80
10618;BME280;5356;43.526;26.534;2023-08-12T12:45:25;99416.63;;;31.56;41.70
10618;BME280;5356;43.526;26.534;2023-08-12T12:47:51;99414.50;;;31.65;41.71
10618;BME280;5356;43.526;26.534;2023-08-12T12:50:16;99413.16;;;31.75;41.76
10618;BME280;5356;43.526;26.534;2023-08-12T12:52:42;99412.28;;;31.71;41.86
10618;BME280;5356;43.526;26.534;2023-08-12T12:55:08;99402.22;;;31.47;41.07
10618;BME280;5356;43.526;26.534;2023-08-12T12:57:33;99413.78;;;31.08;41.91
10618;BME280;5356;43.526;26.534;2023-08-12T13:00:00;99405.78;;;31.03;41.99
10618;BME280;5356;43.526;26.534;2023-08-12T13:02:25;99407.91;;;30.94;41.54
10618;BME280;5356;43.526;26.534;2023-08-12T13:04:52;99397.84;;;30.74;41.80
10618;BME280;5356;43.526;26.534;2023-08-12T13:07:18;99404.56;;;30.60;42.04
10618;BME280;5356;43.526;26.534;2023-08-12T13:09:43;99397.44;;;31.00;41.97
10618;BME280;5356;43.526;26.534;2023-08-12T13:12:09;99388.94;;;31.21;41.32
10618;BME280;5356;43.526;26.534;2023-08-12T13:14:34;99388.13;;;31.48;41.48
10618;BME280;5356;43.526;26.534;2023-08-12T13:17:00;99394.50;;;31.84;40.93
10618;BME280;5356;43.526;26.534;2023-08-12T13:19:26;99388.63;;;32.02;40.17
10618;BME280;5356;43.526;26.534;2023-08-12T13:21:51;99389.53;;;32.06;40.12
10618;BME280;5356;43.526;26.534;2023-08-12T13:24:17;99396.22;;;32.24;39.58
10618;BME280;5356;43.526;26.534;2023-08-12T13:26:42;99398.31;;;32.47;38.67
10618;BME280;5356;43.526;26.534;2023-08-12T13:29:07;99397.19;;;32.67;38.38
10618;BME280;5356;43.526;26.534;2023-08-12T13:31:33;99398.50;;;32.73;37.81
10618;BME280;5356;43.526;26.534;2023-08-12T13:33:59;99390.13;;;32.15;37.87
10618;BME280;5356;43.526;26.534;2023-08-12T13:36:24;99390.69;;;31.57;39.21
10618;BME280;5356;43.526;26.534;2023-08-12T13:38:50;99396.34;;;31.32;39.09
10618;BME280;5356;43.526;26.534;2023-08-12T13:41:15;99392.03;;;31.03;39.23
10618;BME280;5356;43.526;26.534;2023-08-12T13:43:41;99388.69;;;30.82;39.87
10618;BME280;5356;43.526;26.534;2023-08-12T13:46:06;99388.94;;;30.64;40.05
10618;BME280;5356;43.526;26.534;2023-08-12T13:48:32;99386.47;;;30.47;40.21
10618;BME280;5356;43.526;26.534;2023-08-12T13:50:57;99382.47;;;30.45;40.30
10618;BME280;5356;43.526;26.534;2023-08-12T13:53:23;99383.06;;;30.38;40.47
10618;BME280;5356;43.526;26.534;2023-08-12T13:55:49;99374.16;;;30.69;40.54
10618;BME280;5356;43.526;26.534;2023-08-12T13:58:15;99386.31;;;30.96;40.21
10618;BME280;5356;43.526;26.534;2023-08-12T14:00:40;99389.44;;;30.95;39.83
10618;BME280;5356;43.526;26.534;2023-08-12T14:03:05;99381.94;;;30.67;40.33
10618;BME280;5356;43.526;26.534;2023-08-12T14:05:31;99384.75;;;30.42;40.71
10618;BME280;5356;43.526;26.534;2023-08-12T14:07:56;99391.69;;;30.24;41.04
10618;BME280;5356;43.526;26.534;2023-08-12T14:10:22;99387.69;;;30.09;41.22
10618;BME280;5356;43.526;26.534;2023-08-12T14:12:47;99388.34;;;30.06;41.47
10618;BME280;5356;43.526;26.534;2023-08-12T14:15:14;99388.25;;;30.15;41.61
10618;BME280;5356;43.526;26.534;2023-08-12T14:17:40;99384.25;;;30.12;42.08
10618;BME280;5356;43.526;26.534;2023-08-12T14:20:06;99377.59;;;30.26;42.18
10618;BME280;5356;43.526;26.534;2023-08-12T14:22:34;99385.94;;;30.82;41.35
10618;BME280;5356;43.526;26.534;2023-08-12T14:25:00;99377.66;;;31.10;40.92
10618;BME280;5356;43.526;26.534;2023-08-12T14:27:25;99386.69;;;31.10;39.37
10618;BME280;5356;43.526;26.534;2023-08-12T14:29:51;99387.53;;;31.27;39.22
10618;BME280;5356;43.526;26.534;2023-08-12T14:32:16;99377.06;;;31.32;39.40
10618;BME280;5356;43.526;26.534;2023-08-12T14:34:44;99387.94;;;31.41;39.56
10618;BME280;5356;43.526;26.534;2023-08-12T14:37:12;99378.28;;;31.03;39.85
10618;BME280;5356;43.526;26.534;2023-08-12T14:39:38;99374.31;;;30.60;39.57
10618;BME280;5356;43.526;26.534;2023-08-12T14:42:04;99383.63;;;30.84;39.35
10618;BME280;5356;43.526;26.534;2023-08-12T14:44:30;99377.91;;;31.05;39.02
10618;BME280;5356;43.526;26.534;2023-08-12T14:47:00;99375.91;;;31.18;39.22
10618;BME280;5356;43.526;26.534;2023-08-12T14:49:25;99373.13;;;31.33;39.55
10618;BME280;5356;43.526;26.534;2023-08-12T14:51:51;99377.81;;;31.45;38.79
10618;BME280;5356;43.526;26.534;2023-08-12T14:54:17;99371.59;;;31.48;38.96
10618;BME280;5356;43.526;26.534;2023-08-12T14:56:42;99373.38;;;31.57;38.93
10618;BME280;5356;43.526;26.534;2023-08-12T14:59:08;99370.88;;;31.51;38.89
10618;BME280;5356;43.526;26.534;2023-08-12T15:01:34;99372.19;;;31.42;38.78
10618;BME280;5356;43.526;26.534;2023-08-12T15:04:00;99380.59;;;31.33;38.91
10618;BME280;5356;43.526;26.534;2023-08-12T15:06:25;99368.91;;;31.36;38.62
10618;BME280;5356;43.526;26.534;2023-08-12T15:08:51;99383.34;;;31.17;38.26
10618;BME280;5356;43.526;26.534;2023-08-12T15:11:16;99378.81;;;31.09;38.19
10618;BME280;5356;43.526;26.534;2023-08-12T15:13:42;99379.78;;;31.17;38.68
10618;BME280;5356;43.526;26.534;2023-08-12T15:16:07;99374.34;;;31.04;38.84
10618;BME280;5356;43.526;26.534;2023-08-12T15:18:33;99381.78;;;30.76;38.96
10618;BME280;5356;43.526;26.534;2023-08-12T15:20:58;99380.59;;;30.61;39.13
10618;BME280;5356;43.526;26.534;2023-08-12T15:23:24;99381.56;;;30.69;39.28
10618;BME280;5356;43.526;26.534;2023-08-12T15:25:49;99375.50;;;30.75;39.50
10618;BME280;5356;43.526;26.534;2023-08-12T15:28:15;99371.38;;;30.81;39.23
10618;BME280;5356;43.526;26.534;2023-08-12T15:30:41;99374.50;;;30.68;39.33
10618;BME280;5356;43.526;26.534;2023-08-12T15:33:07;99374.03;;;30.65;39.27
10618;BME280;5356;43.526;26.534;2023-08-12T15:35:32;99365.94;;;30.57;39.21
10618;BME280;5356;43.526;26.534;2023-08-12T15:37:58;99373.22;;;30.37;39.49
10618;BME280;5356;43.526;26.534;2023-08-12T15:40:24;99376.88;;;30.29;39.07
10618;BME280;5356;43.526;26.534;2023-08-12T15:42:50;99377.25;;;30.15;39.66
10618;BME280;5356;43.526;26.534;2023-08-12T15:45:16;99374.41;;;29.99;40.21
10618;BME280;5356;43.526;26.534;2023-08-12T15:47:41;99379.31;;;30.06;40.20
10618;BME280;5356;43.526;26.534;2023-08-12T15:50:07;99373.72;;;30.02;40.02
10618;BME280;5356;43.526;26.534;2023-08-12T15:52:33;99381.97;;;29.90;39.90
10618;BME280;5356;43.526;26.534;2023-08-12T15:55:01;99380.34;;;29.76;40.16
10618;BME280;5356;43.526;26.534;2023-08-12T15:57:27;99382.06;;;29.69;40.14
10618;BME280;5356;43.526;26.534;2023-08-12T15:59:52;99380.53;;;29.47;41.02
10618;BME280;5356;43.526;26.534;2023-08-12T16:02:18;99372.53;;;29.42;40.31
10618;BME280;5356;43.526;26.534;2023-08-12T16:04:44;99370.22;;;29.44;40.76
10618;BME280;5356;43.526;26.534;2023-08-12T16:07:09;99379.38;;;29.36;40.02
10618;BME280;5356;43.526;26.534;2023-08-12T16:09:35;99387.56;;;29.23;40.00
10618;BME280;5356;43.526;26.534;2023-08-12T16:12:00;99376.13;;;29.21;40.71
10618;BME280;5356;43.526;26.534;2023-08-12T16:14:25;99382.66;;;29.17;40.94
10618;BME280;5356;43.526;26.534;2023-08-12T16:16:51;99380.91;;;29.12;40.79
10618;BME280;5356;43.526;26.534;2023-08-12T16:19:16;99381.59;;;29.09;40.71
10618;BME280;5356;43.526;26.534;2023-08-12T16:21:42;99391.34;;;28.98;41.12
10618;BME280;5356;43.526;26.534;2023-08-12T16:24:07;99388.81;;;28.93;41.01
10618;BME280;5356;43.526;26.534;2023-08-12T16:26:33;99388.03;;;28.92;41.46
10618;BME280;5356;43.526;26.534;2023-08-12T16:28:59;99383.56;;;28.87;41.71
10618;BME280;5356;43.526;26.534;2023-08-12T16:31:25;99383.97;;;28.77;42.12
10618;BME280;5356;43.526;26.534;2023-08-12T16:33:50;99388.25;;;28.66;42.09
10618;BME280;5356;43.526;26.534;2023-08-12T16:36:16;99397.03;;;28.59;42.14
10618;BME280;5356;43.526;26.534;2023-08-12T16:38:41;99390.06;;;28.62;42.40
10618;BME280;5356;43.526;26.534;2023-08-12T16:41:07;99394.41;;;28.63;42.58
10618;BME280;5356;43.526;26.534;2023-08-12T16:43:32;99390.72;;;28.59;43.16
10618;BME280;5356;43.526;26.534;2023-08-12T16:45:58;99396.09;;;28.55;42.92
10618;BME280;5356;43.526;26.534;2023-08-12T16:48:23;99401.97;;;28.45;42.86
10618;BME280;5356;43.526;26.534;2023-08-12T16:50:48;99395.88;;;28.39;43.39
10618;BME280;5356;43.526;26.534;2023-08-12T16:53:23;99400.53;;;28.39;43.68
10618;BME280;5356;43.526;26.534;2023-08-12T16:55:55;99397.66;;;28.35;44.04
10618;BME280;5356;43.526;26.534;2023-08-12T17:01:42;99401.44;;;28.22;44.15
10618;BME280;5356;43.526;26.534;2023-08-12T17:04:23;99404.19;;;28.22;44.38
10618;BME280;5356;43.526;26.534;2023-08-12T17:07:20;99407.44;;;28.15;44.86
10618;BME280;5356;43.526;26.534;2023-08-12T17:10:28;99401.22;;;28.06;45.10
10618;BME280;5356;43.526;26.534;2023-08-12T17:13:14;99406.88;;;28.01;45.30
10618;BME280;5356;43.526;26.534;2023-08-12T17:18:54;99417.75;;;27.89;45.90
10618;BME280;5356;43.526;26.534;2023-08-12T17:24:43;99414.22;;;27.80;46.61
10618;BME280;5356;43.526;26.534;2023-08-12T17:27:41;99412.31;;;27.71;46.60
10618;BME280;5356;43.526;26.534;2023-08-12T17:30:25;99414.28;;;27.62;47.06
10618;BME280;5356;43.526;26.534;2023-08-12T17:36:24;99420.59;;;27.45;47.16
10618;BME280;5356;43.526;26.534;2023-08-12T17:39:02;99424.16;;;27.37;47.22
10618;BME280;5356;43.526;26.534;2023-08-12T17:42:14;99434.81;;;27.30;47.65
10618;BME280;5356;43.526;26.534;2023-08-12T17:44:46;99434.97;;;27.25;47.94
10618;BME280;5356;43.526;26.534;2023-08-12T17:47:35;99437.56;;;27.21;48.98
10618;BME280;5356;43.526;26.534;2023-08-12T17:50:03;99439.81;;;27.10;49.53
10618;BME280;5356;43.526;26.534;2023-08-12T17:52:33;99442.56;;;27.02;49.67
10618;BME280;5356;43.526;26.534;2023-08-12T17:55:27;99444.16;;;26.94;50.11
10618;BME280;5356;43.526;26.534;2023-08-12T18:01:13;99446.72;;;26.64;51.53
10618;BME280;5356;43.526;26.534;2023-08-12T18:04:01;99450.53;;;26.46;52.20
10618;BME280;5356;43.526;26.534;2023-08-12T18:10:04;99456.94;;;25.93;54.21
10618;BME280;5356;43.526;26.534;2023-08-12T18:12:45;99463.19;;;25.85;55.71
10618;BME280;5356;43.526;26.534;2023-08-12T18:15:35;99456.72;;;25.81;56.09
10618;BME280;5356;43.526;26.534;2023-08-12T18:18:03;99466.50;;;25.82;55.97
10618;BME280;5356;43.526;26.534;2023-08-12T18:20:55;99467.94;;;25.70;57.70
10618;BME280;5356;43.526;26.534;2023-08-12T18:23:31;99462.91;;;25.64;57.32
10618;BME280;5356;43.526;26.534;2023-08-12T18:29:07;99471.88;;;25.64;57.78
10618;BME280;5356;43.526;26.534;2023-08-12T18:32:00;99488.59;;;25.63;58.04
10618;BME280;5356;43.526;26.534;2023-08-12T18:34:54;99489.91;;;25.43;58.05
10618;BME280;5356;43.526;26.534;2023-08-12T18:37:36;99485.16;;;25.12;58.60
10618;BME280;5356;43.526;26.534;2023-08-12T18:40:07;99480.13;;;25.05;59.43
10618;BME280;5356;43.526;26.534;2023-08-12T18:42:59;99491.97;;;25.01;59.90
10618;BME280;5356;43.526;26.534;2023-08-12T18:45:36;99498.53;;;25.00;60.18
10618;BME280;5356;43.526;26.534;2023-08-12T18:50:50;99495.84;;;24.86;60.95
10618;BME280;5356;43.526;26.534;2023-08-12T18:53:23;99498.34;;;24.82;60.52
10618;BME280;5356;43.526;26.534;2023-08-12T18:55:54;99495.63;;;24.82;60.81
10618;BME280;5356;43.526;26.534;2023-08-12T18:58:26;99492.09;;;24.82;60.70
10618;BME280;5356;43.526;26.534;2023-08-12T19:04:16;99490.44;;;24.72;61.52
10618;BME280;5356;43.526;26.534;2023-08-12T19:06:50;99499.50;;;24.68;61.92
10618;BME280;5356;43.526;26.534;2023-08-12T19:12:01;99498.19;;;24.65;61.89
10618;BME280;5356;43.526;26.534;2023-08-12T19:14:34;99505.56;;;24.64;62.11
10618;BME280;5356;43.526;26.534;2023-08-12T19:17:10;99507.50;;;24.64;62.41
10618;BME280;5356;43.526;26.534;2023-08-12T19:20:03;99506.47;;;24.60;62.19
10618;BME280;5356;43.526;26.534;2023-08-12T19:22:46;99497.41;;;24.51;62.21
10618;BME280;5356;43.526;26.534;2023-08-12T19:25:20;99498.34;;;24.46;63.27
10618;BME280;5356;43.526;26.534;2023-08-12T19:28:25;99503.78;;;24.46;62.97
10618;BME280;5356;43.526;26.534;2023-08-12T19:31:04;99514.38;;;24.48;63.19
10618;BME280;5356;43.526;26.534;2023-08-12T19:33:35;99511.34;;;24.49;63.67
10618;BME280;5356;43.526;26.534;2023-08-12T19:36:33;99500.44;;;24.35;63.85
10618;BME280;5356;43.526;26.534;2023-08-12T19:39:15;99512.53;;;24.29;64.10
10618;BME280;5356;43.526;26.534;2023-08-12T19:42:00;99511.31;;;24.22;65.08
10618;BME280;5356;43.526;26.534;2023-08-12T19:44:43;99518.59;;;24.12;64.83
10618;BME280;5356;43.526;26.534;2023-08-12T19:47:26;99517.97;;;24.15;65.32
10618;BME280;5356;43.526;26.534;2023-08-12T19:50:03;99515.34;;;24.10;65.79
10618;BME280;5356;43.526;26.534;2023-08-12T19:52:42;99514.63;;;24.05;65.85
10618;BME280;5356;43.526;26.534;2023-08-12T19:55:38;99524.00;;;23.98;66.60
10618;BME280;5356;43.526;26.534;2023-08-12T19:58:47;99519.38;;;23.99;66.52
10618;BME280;5356;43.526;26.534;2023-08-12T20:01:17;99520.94;;;23.86;66.90
10618;BME280;5356;43.526;26.534;2023-08-12T20:04:21;99523.78;;;23.81;67.92
10618;BME280;5356;43.526;26.534;2023-08-12T20:06:47;99524.38;;;23.78;67.96
10618;BME280;5356;43.526;26.534;2023-08-12T20:09:19;99523.53;;;23.78;68.14
10618;BME280;5356;43.526;26.534;2023-08-12T20:12:11;99526.00;;;23.60;69.32
10618;BME280;5356;43.526;26.534;2023-08-12T20:17:28;99526.25;;;23.45;71.75
10618;BME280;5356;43.526;26.534;2023-08-12T20:19:53;99523.75;;;23.48;71.48